createdAt,value
2019-06-07T00:00:39.217Z,8.63
2019-06-07T00:03:03.278Z,5.53
2019-06-07T00:05:32.557Z,4.90
2019-06-07T00:08:07.430Z,6.17
2019-06-07T00:10:36.710Z,5.07
2019-06-07T00:13:04.598Z,4.33
2019-06-07T00:15:34.098Z,6.83
2019-06-07T00:18:03.658Z,7.23
2019-06-07T00:20:32.948Z,4.67
2019-06-07T00:23:02.329Z,6.17
2019-06-07T00:25:31.664Z,5.87
2019-06-07T00:28:00.954Z,4.13
2019-06-07T00:30:42.369Z,5.30
2019-06-07T00:33:01.403Z,4.50
2019-06-07T00:35:30.757Z,6.03
2019-06-07T00:38:00.106Z,6.77
2019-06-07T00:40:32.018Z,6.13
2019-06-07T00:43:00.669Z,3.87
2019-06-07T00:45:30.311Z,3.77
2019-06-07T00:47:59.701Z,3.87
2019-06-07T00:50:29.095Z,7.03
2019-06-07T00:53:14.794Z,6.17
2019-06-07T00:55:29.470Z,5.53
2019-06-07T00:57:58.755Z,4.73
2019-06-07T01:00:28.102Z,5.47
2019-06-07T01:02:57.410Z,4.17
2019-06-07T01:05:31.427Z,5.07
2019-06-07T01:07:57.791Z,4.47
2019-06-07T01:10:51.856Z,4.53
2019-06-07T01:12:58.623Z,5.83
2019-06-07T01:15:29.408Z,3.93
2019-06-07T01:18:33.887Z,3.93
2019-06-07T01:20:29.921Z,3.83
2019-06-07T01:22:59.249Z,15.43
2019-06-07T01:25:28.936Z,5.07
2019-06-07T01:27:58.610Z,3.80
2019-06-07T01:30:29.265Z,5.93
2019-06-07T01:32:59.437Z,3.40
2019-06-07T01:35:29.969Z,7.37
2019-06-07T01:37:59.654Z,3.90
2019-06-07T01:40:32.235Z,5.40
2019-06-07T01:43:00.477Z,4.33
2019-06-07T01:45:31.147Z,4.07
2019-06-07T01:48:00.672Z,7.77
2019-06-07T01:50:29.958Z,5.37
2019-06-07T01:52:59.479Z,5.00
2019-06-07T01:55:32.369Z,5.03
2019-06-07T01:58:00.171Z,10.03
2019-06-07T02:00:32.549Z,4.80
2019-06-07T02:03:00.503Z,5.63
2019-06-07T02:05:30.994Z,6.97
2019-06-07T02:08:01.017Z,4.90
2019-06-07T02:10:33.455Z,4.07
2019-06-07T02:13:01.420Z,7.10
2019-06-07T02:15:36.220Z,3.73
2019-06-07T02:18:01.998Z,8.37
2019-06-07T02:20:34.261Z,3.83
2019-06-07T02:23:02.305Z,5.37
2019-06-07T02:25:42.245Z,12.23
2019-06-07T02:28:26.426Z,4.57
2019-06-07T02:30:47.111Z,4.60
2019-06-07T02:33:04.889Z,5.37
2019-06-07T02:35:40.158Z,5.13
2019-06-07T02:38:05.239Z,4.97
2019-06-07T02:40:37.224Z,4.77
2019-06-07T02:43:05.590Z,8.50
2019-06-07T02:45:42.241Z,9.37
2019-06-07T02:48:06.071Z,5.93
2019-06-07T02:50:38.378Z,5.37
2019-06-07T02:53:06.397Z,10.10
2019-06-07T02:56:26.073Z,8.53
2019-06-07T02:58:06.731Z,5.67
2019-06-07T03:01:05.702Z,6.20
2019-06-07T03:03:18.660Z,5.87
2019-06-07T03:05:48.148Z,9.43
2019-06-07T03:08:18.137Z,6.07
2019-06-07T03:10:49.721Z,9.67
2019-06-07T03:13:20.675Z,8.57
2019-06-07T03:15:51.675Z,5.83
2019-06-07T03:18:41.678Z,5.47
2019-06-07T03:21:15.644Z,5.63
2019-06-07T03:23:47.312Z,5.10
2019-06-07T03:26:17.652Z,4.60
2019-06-07T03:28:47.235Z,4.83
2019-06-07T03:31:16.876Z,5.90
2019-06-07T03:33:46.307Z,6.57
2019-06-07T03:36:23.947Z,5.93
2019-06-07T03:38:46.715Z,8.47
2019-06-07T03:41:16.301Z,5.03
2019-06-07T03:43:45.847Z,6.10
2019-06-07T03:46:15.207Z,5.70
2019-06-07T03:48:44.583Z,10.13
2019-06-07T03:51:24.760Z,9.07
2019-06-07T03:53:45.114Z,6.77
2019-06-07T03:56:15.432Z,6.00
2019-06-07T03:58:49.880Z,7.20
2019-06-07T04:01:16.176Z,6.50
2019-06-07T04:03:51.385Z,9.57
2019-06-07T04:06:16.520Z,4.83
2019-06-07T04:08:45.795Z,5.23
2019-06-07T04:11:15.068Z,5.20
2019-06-07T04:13:44.338Z,4.57
2019-06-07T04:16:13.734Z,4.93
2019-06-07T04:18:43.050Z,5.20
2019-06-07T04:21:24.117Z,6.73
2019-06-07T04:23:53.399Z,5.07
2019-06-07T04:26:44.031Z,7.43
2019-06-07T04:31:43.907Z,6.73
2019-06-07T04:34:13.259Z,8.80
2019-06-07T04:36:56.468Z,7.17
2019-06-07T04:39:13.642Z,6.23
2019-06-07T04:41:45.992Z,6.53
2019-06-07T04:44:17.872Z,8.47
2019-06-07T04:46:50.081Z,6.20
2019-06-07T04:49:22.494Z,5.73
2019-06-07T04:51:52.083Z,11.03
2019-06-07T04:54:21.366Z,7.30
2019-06-07T04:56:50.689Z,10.80
2019-06-07T05:00:01.077Z,6.93
2019-06-07T05:01:51.269Z,6.00
2019-06-07T05:04:20.894Z,7.67
2019-06-07T05:06:50.204Z,12.73
2019-06-07T05:09:19.602Z,13.70
2019-06-07T05:11:49.025Z,8.03
2019-06-07T05:14:18.516Z,7.40
2019-06-07T05:16:48.169Z,7.87
2019-06-07T05:19:17.470Z,7.13
2019-06-07T05:22:02.836Z,7.27
2019-06-07T05:24:17.764Z,9.03
2019-06-07T05:26:47.142Z,7.00
2019-06-07T05:29:16.420Z,9.40
2019-06-07T05:31:49.499Z,9.80
2019-06-07T05:34:18.822Z,7.83
2019-06-07T05:37:10.419Z,9.23
2019-06-07T05:39:19.405Z,7.23
2019-06-07T05:41:48.832Z,9.00
2019-06-07T05:44:18.123Z,6.80
2019-06-07T05:46:47.716Z,7.90
2019-06-07T05:49:17.211Z,10.37
2019-06-07T05:51:46.562Z,10.37
2019-06-07T05:54:16.051Z,11.43
2019-06-07T05:56:45.546Z,8.30
2019-06-07T05:59:14.950Z,10.17
2019-06-07T06:02:21.478Z,7.20
2019-06-07T06:04:53.385Z,10.27
2019-06-07T06:07:22.701Z,14.97
2019-06-07T06:09:52.002Z,8.43
2019-06-07T06:12:34.754Z,8.83
2019-06-07T06:14:52.410Z,11.37
2019-06-07T06:17:21.665Z,10.17
2019-06-07T06:19:53.460Z,9.60
2019-06-07T06:22:21.969Z,12.53
2019-06-07T06:25:30.006Z,10.57
2019-06-07T06:28:02.587Z,8.00
2019-06-07T06:29:53.719Z,13.87
2019-06-07T06:34:55.906Z,10.33
2019-06-07T06:37:25.194Z,7.57
2019-06-07T06:39:54.582Z,8.93
2019-06-07T06:42:23.857Z,11.60
2019-06-07T06:44:54.148Z,11.80
2019-06-07T06:47:23.989Z,7.13
2019-06-07T06:49:54.229Z,7.40
2019-06-07T06:52:24.016Z,11.13
2019-06-07T06:54:59.961Z,10.80
2019-06-07T06:57:24.453Z,12.93
2019-06-07T06:59:53.999Z,15.50
2019-06-07T07:02:23.305Z,18.63
2019-06-07T07:04:53.961Z,14.73
2019-06-07T07:07:26.764Z,15.17
2019-06-07T07:09:59.354Z,15.60
2019-06-07T07:12:28.245Z,14.37
2019-06-07T07:14:57.553Z,13.13
2019-06-07T07:17:48.027Z,12.43
2019-06-07T07:19:57.890Z,12.43
2019-06-07T07:22:27.369Z,9.90
2019-06-07T07:24:56.679Z,13.37
2019-06-07T07:27:26.110Z,15.43
2019-06-07T07:30:31.305Z,13.50
2019-06-07T07:32:26.441Z,10.70
2019-06-07T07:35:00.481Z,9.30
2019-06-07T07:37:26.923Z,12.93
2019-06-07T07:40:08.080Z,18.27
2019-06-07T07:42:27.473Z,11.80
2019-06-07T07:44:57.028Z,10.87
2019-06-07T07:48:01.806Z,12.33
2019-06-07T07:50:16.499Z,9.53
2019-06-07T07:52:48.181Z,9.23
2019-06-07T07:55:16.874Z,11.23
2019-06-07T07:57:48.704Z,12.93
2019-06-07T08:00:49.693Z,8.07
2019-06-07T08:02:52.673Z,9.63
2019-06-07T08:05:33.792Z,9.83
2019-06-07T08:07:55.425Z,8.07
2019-06-07T08:10:21.898Z,6.40
2019-06-07T08:13:07.250Z,9.07
2019-06-07T08:15:22.636Z,7.93
2019-06-07T08:17:58.080Z,6.33
2019-06-07T08:20:23.349Z,6.23
2019-06-07T08:22:55.485Z,5.33
2019-06-07T08:25:23.910Z,6.53
2019-06-07T08:27:55.995Z,9.10
2019-06-07T08:33:05.934Z,8.30
2019-06-07T08:40:28.909Z,6.23
2019-06-07T08:43:15.387Z,5.83
2019-06-07T08:45:29.379Z,8.83
2019-06-07T08:48:05.386Z,7.13
2019-06-07T08:50:29.792Z,7.07
2019-06-07T08:53:10.629Z,6.50
2019-06-07T08:55:30.271Z,7.87
2019-06-07T08:58:05.778Z,8.63
2019-06-07T09:00:47.704Z,7.97
2019-06-07T09:03:06.600Z,4.47
2019-06-07T09:05:33.819Z,5.13
2019-06-07T09:08:23.452Z,6.57
2019-06-07T09:10:34.105Z,7.60
2019-06-07T09:13:10.172Z,6.97
2019-06-07T09:15:34.565Z,7.33
2019-06-07T09:20:48.099Z,6.70
2019-06-07T09:23:18.153Z,7.73
2019-06-07T09:25:57.429Z,10.63
2019-06-07T09:28:20.829Z,8.03
2019-06-07T09:30:50.550Z,7.33
2019-06-07T09:33:20.085Z,10.07
2019-06-07T09:35:49.434Z,8.87
2019-06-07T09:38:25.659Z,8.23
2019-06-07T09:40:49.749Z,7.27
2019-06-07T09:44:00.168Z,12.90
2019-06-07T09:45:50.245Z,7.03
2019-06-07T09:49:01.289Z,8.10
2019-06-07T09:50:50.565Z,11.77
2019-06-07T09:53:23.171Z,7.50
2019-06-07T09:55:51.217Z,7.10
2019-06-07T10:00:51.532Z,8.33
2019-06-07T10:03:22.557Z,5.70
2019-06-07T10:05:51.944Z,8.97
2019-06-07T10:09:26.339Z,5.50
2019-06-07T10:10:52.664Z,6.97
2019-06-07T10:13:22.420Z,6.33
2019-06-07T10:15:53.736Z,4.03
2019-06-07T10:18:23.251Z,6.33
2019-06-07T10:20:52.644Z,4.17
2019-06-07T10:23:22.320Z,6.17
2019-06-07T10:25:51.681Z,5.30
2019-06-07T10:28:21.219Z,3.67
2019-06-07T10:30:50.783Z,3.30
2019-06-07T10:33:20.261Z,5.00
2019-06-07T10:35:49.855Z,9.50
2019-06-07T10:38:19.214Z,6.57
2019-06-07T10:40:48.565Z,7.70
2019-06-07T10:43:17.853Z,5.97
2019-06-07T10:45:47.660Z,4.17
2019-06-07T10:48:17.015Z,8.77
2019-06-07T10:50:46.400Z,6.13
2019-06-07T10:53:16.014Z,5.37
2019-06-07T10:55:45.646Z,5.37
2019-06-07T10:58:14.955Z,5.17
2019-06-07T11:00:44.260Z,5.07
2019-06-07T11:03:14.255Z,6.03
2019-06-07T11:05:43.833Z,3.93
2019-06-07T11:08:14.603Z,5.53
2019-06-07T11:10:44.406Z,6.80
2019-06-07T11:13:14.457Z,4.57
2019-06-07T11:15:44.146Z,5.73
2019-06-07T11:18:14.461Z,5.67
2019-06-07T11:20:44.280Z,6.03
2019-06-07T11:23:14.327Z,9.47
2019-06-07T11:25:43.981Z,4.17
2019-06-07T11:28:14.500Z,4.93
2019-06-07T11:30:44.142Z,5.73
2019-06-07T11:33:16.540Z,3.33
2019-06-07T11:35:46.155Z,3.40
2019-06-07T11:38:15.546Z,5.37
2019-06-07T11:40:45.137Z,3.73
2019-06-07T11:43:14.964Z,7.07
2019-06-07T11:45:44.574Z,3.23
2019-06-07T11:48:13.840Z,5.60
2019-06-07T11:50:43.127Z,3.93
2019-06-07T11:53:12.700Z,3.57
2019-06-07T11:55:42.290Z,3.60
2019-06-07T11:58:16.082Z,3.70
2019-06-07T12:00:42.649Z,3.10
2019-06-07T12:03:11.926Z,7.93
2019-06-07T12:05:41.458Z,2.60
2019-06-07T12:08:11.870Z,5.43
2019-06-07T12:10:42.823Z,4.30
2019-06-07T12:13:12.580Z,3.93
2019-06-07T12:15:41.998Z,4.33
2019-06-07T12:18:11.621Z,4.30
2019-06-07T12:20:40.974Z,2.97
2019-06-07T12:23:11.940Z,4.03
2019-06-07T12:25:41.456Z,7.00
2019-06-07T12:28:10.798Z,4.07
2019-06-07T12:30:40.222Z,7.07
2019-06-07T12:33:09.549Z,5.30
2019-06-07T12:35:38.832Z,4.23
2019-06-07T12:38:08.195Z,4.80
2019-06-07T12:40:37.525Z,5.43
2019-06-07T12:43:06.971Z,3.00
2019-06-07T12:45:44.907Z,5.20
2019-06-07T12:48:07.291Z,5.27
2019-06-07T12:50:43.186Z,5.23
2019-06-07T12:53:07.721Z,4.03
2019-06-07T12:55:37.368Z,5.27
2019-06-07T12:58:06.651Z,4.87
2019-06-07T13:00:36.022Z,4.43
2019-06-07T13:03:06.128Z,3.70
2019-06-07T13:05:35.431Z,5.57
2019-06-07T13:08:05.042Z,6.23
2019-06-07T13:10:34.415Z,5.43
2019-06-07T13:13:04.907Z,3.57
2019-06-07T13:15:38.064Z,5.60
2019-06-07T13:18:07.457Z,5.50
2019-06-07T13:20:36.907Z,5.97
2019-06-07T13:23:06.330Z,3.47
2019-06-07T13:25:46.252Z,3.47
2019-06-07T13:28:06.861Z,6.67
2019-06-07T13:30:36.595Z,7.27
2019-06-07T13:33:06.352Z,3.57
2019-06-07T13:35:35.618Z,5.83
2019-06-07T13:38:04.922Z,4.00
2019-06-07T13:40:34.185Z,5.03
2019-06-07T13:43:03.668Z,21.93
2019-06-07T13:45:33.253Z,8.80
2019-06-07T13:48:02.542Z,4.33
2019-06-07T13:50:31.879Z,6.53
2019-06-07T13:53:01.201Z,5.27
2019-06-07T13:55:30.545Z,5.73
2019-06-07T13:58:00.102Z,5.97
2019-06-07T14:00:29.914Z,4.07
2019-06-07T14:02:59.297Z,4.60
2019-06-07T14:05:29.132Z,6.00
2019-06-07T14:07:58.586Z,5.50
2019-06-07T14:10:27.849Z,3.80
2019-06-07T14:12:57.310Z,6.40
2019-06-07T14:15:26.641Z,9.17
2019-06-07T14:17:56.245Z,5.80
2019-06-07T14:20:30.594Z,6.87
2019-06-07T14:22:56.661Z,6.13
2019-06-07T14:25:27.209Z,6.73
2019-06-07T14:27:56.608Z,5.30
2019-06-07T14:30:26.122Z,4.07
2019-06-07T14:32:55.391Z,9.00
2019-06-07T14:35:24.766Z,4.67
2019-06-07T14:37:54.086Z,6.27
2019-06-07T14:40:23.626Z,6.23
2019-06-07T14:42:52.937Z,4.73
2019-06-07T14:45:23.511Z,6.97
2019-06-07T14:47:53.355Z,4.90
2019-06-07T14:50:24.088Z,4.77
2019-06-07T14:52:55.592Z,6.47
2019-06-07T14:55:25.173Z,6.70
2019-06-07T14:57:54.614Z,4.23
2019-06-07T15:00:44.462Z,5.43
2019-06-07T15:03:13.743Z,7.67
2019-06-07T15:05:43.019Z,5.70
2019-06-07T15:08:12.309Z,6.43
2019-06-07T15:10:41.675Z,5.83
2019-06-07T15:13:11.259Z,5.67
2019-06-07T15:15:40.660Z,4.00
2019-06-07T15:18:10.128Z,5.07
2019-06-07T15:20:39.528Z,5.10
2019-06-07T15:23:08.882Z,5.53
2019-06-07T15:25:39.632Z,4.40
2019-06-07T15:28:09.229Z,9.23
2019-06-07T15:30:38.530Z,6.40
2019-06-07T15:33:07.890Z,4.43
2019-06-07T15:35:39.044Z,6.53
2019-06-07T15:38:08.823Z,8.07
2019-06-07T15:40:39.567Z,7.33
2019-06-07T15:43:09.140Z,4.00
2019-06-07T15:45:39.642Z,5.20
2019-06-07T15:48:09.186Z,7.07
2019-06-07T15:50:38.543Z,9.97
2019-06-07T15:53:07.864Z,7.73
2019-06-07T15:55:43.048Z,10.67
2019-06-07T15:58:08.518Z,6.93
2019-06-07T16:00:37.991Z,5.83
2019-06-07T16:03:08.840Z,7.00
2019-06-07T16:05:38.293Z,14.90
2019-06-07T16:08:07.635Z,9.90
2019-06-07T16:10:38.735Z,5.33
2019-06-07T16:13:08.219Z,6.43
2019-06-07T16:15:39.037Z,7.43
2019-06-07T16:18:08.822Z,5.63
2019-06-07T16:20:39.579Z,4.80
2019-06-07T16:23:08.982Z,7.50
2019-06-07T16:25:38.320Z,5.33
2019-06-07T16:28:07.658Z,5.97
2019-06-07T16:30:38.408Z,10.60
2019-06-07T16:33:07.912Z,6.33
2019-06-07T16:35:37.238Z,8.30
2019-06-07T16:38:06.625Z,7.63
2019-06-07T16:40:36.405Z,8.05
2019-06-07T16:43:16.733Z,8.67
2019-06-07T16:45:38.590Z,10.93
2019-06-07T16:48:08.210Z,6.92
2019-06-07T16:50:38.687Z,9.25
2019-06-07T16:53:08.186Z,5.55
2019-06-07T16:55:38.687Z,11.00
2019-06-07T16:58:08.258Z,21.15
2019-06-07T17:00:38.665Z,6.70
2019-06-07T17:03:08.590Z,12.15
2019-06-07T17:05:37.983Z,6.50
2019-06-07T17:08:07.328Z,8.35
2019-06-07T17:10:37.966Z,6.70
2019-06-07T17:13:07.465Z,7.77
2019-06-07T17:15:36.794Z,15.03
2019-06-07T17:18:06.125Z,8.17
2019-06-07T17:20:35.414Z,13.30
2019-06-07T17:23:04.737Z,11.07
2019-06-07T17:25:34.358Z,10.57
2019-06-07T17:28:03.680Z,8.90
2019-06-07T17:30:33.009Z,7.10
2019-06-07T17:33:02.389Z,12.53
2019-06-07T17:35:31.819Z,14.40
2019-06-07T17:38:01.154Z,35.37
2019-06-07T17:40:30.618Z,22.47
2019-06-07T17:42:59.999Z,18.17
2019-06-07T17:45:29.733Z,15.77
2019-06-07T17:47:59.083Z,17.10
2019-06-07T17:50:28.411Z,11.30
2019-06-07T17:53:00.273Z,14.40
2019-06-07T17:55:29.592Z,9.00
2019-06-07T17:57:58.932Z,11.30
2019-06-07T18:00:44.650Z,15.37
2019-06-07T18:03:14.055Z,13.20
2019-06-07T18:05:45.609Z,12.17
2019-06-07T18:08:15.935Z,17.90
2019-06-07T18:10:47.715Z,12.30
2019-06-07T18:13:17.087Z,12.67
2019-06-07T18:15:51.658Z,9.93
2019-06-07T18:18:18.486Z,13.40
2019-06-07T18:20:49.127Z,9.43
2019-06-07T18:23:18.793Z,11.27
2019-06-07T18:25:48.482Z,7.87
2019-06-07T18:28:18.038Z,7.97
2019-06-07T18:30:48.567Z,9.53
2019-06-07T18:33:18.101Z,7.30
2019-06-07T18:35:48.906Z,7.67
2019-06-07T18:38:18.360Z,9.13
2019-06-07T18:40:49.006Z,8.97
2019-06-07T18:43:18.499Z,7.97
2019-06-07T18:45:49.002Z,7.97
2019-06-07T18:48:18.605Z,8.23
2019-06-07T18:50:48.632Z,7.30
2019-06-07T18:53:18.073Z,9.07
2019-06-07T18:55:47.831Z,10.17
2019-06-07T18:58:17.222Z,8.50
2019-06-07T19:00:47.312Z,9.77
2019-06-07T19:03:16.794Z,13.07
2019-06-07T19:05:46.151Z,10.40
2019-06-07T19:08:15.683Z,8.70
2019-06-07T19:10:45.130Z,9.47
2019-06-07T19:13:14.523Z,8.07
2019-06-07T19:15:43.896Z,7.10
2019-06-07T19:18:13.428Z,7.87
2019-06-07T19:20:43.180Z,9.33
2019-06-07T19:23:12.483Z,9.97
2019-06-07T19:25:41.799Z,11.03
2019-06-07T19:28:14.006Z,14.80
2019-06-07T19:30:43.458Z,12.60
2019-06-07T19:33:12.781Z,7.60
2019-06-07T19:35:42.159Z,8.20
2019-06-07T19:38:11.550Z,8.10
2019-06-07T19:40:40.849Z,8.93
2019-06-07T19:43:10.218Z,8.30
2019-06-07T19:45:39.574Z,8.97
2019-06-07T19:48:08.894Z,9.83
2019-06-07T19:50:38.311Z,7.97
2019-06-07T19:53:07.783Z,9.70
2019-06-07T19:55:37.178Z,12.90
2019-06-07T19:58:06.593Z,8.03
2019-06-07T20:00:35.891Z,7.27
2019-06-07T20:03:05.186Z,10.97
2019-06-07T20:05:34.519Z,9.67
2019-06-07T20:08:04.852Z,7.73
2019-06-07T20:10:34.833Z,12.47
2019-06-07T20:13:05.220Z,9.97
2019-06-07T20:15:34.686Z,10.13
2019-06-07T20:18:05.390Z,10.20
2019-06-07T20:20:35.067Z,10.07
2019-06-07T20:23:05.175Z,13.60
2019-06-07T20:25:34.812Z,8.00
2019-06-07T20:28:05.604Z,7.77
2019-06-07T20:30:37.857Z,9.93
2019-06-07T20:33:08.188Z,11.20
2019-06-07T20:35:40.285Z,9.47
2019-06-07T20:38:09.611Z,9.77
2019-06-07T20:40:39.031Z,14.47
2019-06-07T20:43:08.328Z,9.40
2019-06-07T20:45:37.668Z,11.00
2019-06-07T20:48:08.445Z,8.00
2019-06-07T20:50:37.984Z,8.70
2019-06-07T20:53:07.367Z,10.60
2019-06-07T20:55:36.739Z,10.10
2019-06-07T20:58:07.244Z,13.00
2019-06-07T21:00:39.139Z,10.50
2019-06-07T21:03:09.619Z,8.00
2019-06-07T21:05:39.122Z,12.77
2019-06-07T21:08:12.319Z,10.83
2019-06-07T21:10:39.424Z,11.27
2019-06-07T21:13:10.110Z,15.80
2019-06-07T21:15:48.267Z,10.53
2019-06-07T21:18:18.793Z,11.10
2019-06-07T21:20:41.645Z,9.67
2019-06-07T21:23:11.995Z,8.70
2019-06-07T21:25:41.834Z,11.03
2019-06-07T21:28:11.463Z,10.70
2019-06-07T21:30:40.949Z,8.73
2019-06-07T21:33:11.805Z,11.27
2019-06-07T21:35:41.802Z,11.23
2019-06-07T21:38:12.800Z,10.77
2019-06-07T21:40:42.222Z,9.40
2019-06-07T21:43:12.779Z,16.90
2019-06-07T21:45:42.516Z,9.63
2019-06-07T21:48:13.928Z,12.27
2019-06-07T21:50:42.867Z,9.43
2019-06-07T21:53:12.970Z,12.73
2019-06-07T21:55:42.352Z,9.87
2019-06-07T21:58:11.636Z,10.90
2019-06-07T22:01:22.402Z,12.73
2019-06-07T22:03:51.707Z,12.20
2019-06-07T22:06:21.048Z,16.60
2019-06-07T22:08:50.383Z,12.00
2019-06-07T22:11:19.762Z,12.50
2019-06-07T22:13:49.053Z,11.23
2019-06-07T22:16:28.645Z,14.07
2019-06-07T22:18:49.709Z,12.57
2019-06-07T22:21:19.127Z,16.80
2019-06-07T22:23:48.875Z,15.87
2019-06-07T22:26:18.597Z,22.30
2019-06-07T22:28:47.905Z,14.60
2019-06-07T22:31:17.309Z,16.43
2019-06-07T22:33:46.733Z,11.93
2019-06-07T22:36:16.097Z,21.03
2019-06-07T22:38:45.588Z,15.03
2019-06-07T22:41:15.860Z,11.00
2019-06-07T22:43:45.503Z,11.00
2019-06-07T22:46:15.136Z,20.07
2019-06-07T22:48:44.449Z,15.03
2019-06-07T22:51:14.642Z,14.67
2019-06-07T22:53:44.486Z,17.13
2019-06-07T22:56:25.178Z,9.73
2019-06-07T22:58:54.498Z,9.93
2019-06-07T23:01:23.858Z,11.13
2019-06-07T23:03:53.165Z,14.53
2019-06-07T23:06:22.489Z,14.50
2019-06-07T23:08:51.760Z,16.93
2019-06-07T23:11:21.066Z,11.27
2019-06-07T23:13:50.396Z,10.13
2019-06-07T23:16:19.939Z,11.07
2019-06-07T23:18:49.398Z,11.73
2019-06-07T23:21:19.980Z,15.70
2019-06-07T23:23:49.954Z,13.53
2019-06-07T23:26:20.521Z,11.03
2019-06-07T23:28:49.983Z,11.37
2019-06-07T23:31:20.704Z,11.60
2019-06-07T23:33:50.206Z,9.77
2019-06-07T23:36:21.204Z,12.53
2019-06-07T23:38:50.802Z,12.93
2019-06-07T23:41:20.548Z,10.00
2019-06-07T23:43:51.327Z,14.50
2019-06-07T23:46:21.646Z,11.07
2019-06-07T23:48:51.049Z,14.80
2019-06-07T23:51:20.353Z,13.63
2019-06-07T23:53:49.907Z,13.63
2019-06-07T23:56:20.441Z,13.63
2019-06-07T23:58:49.912Z,11.87
